sensor_id;sensor_type;location;lat;lon;timestamp;temperature;humidity
70368;DHT22;57789;53.868;10.728;2024-03-22T00:01:51;7.70;99.90
70368;DHT22;57789;53.868;10.728;2024-03-22T00:04:17;7.70;99.90
70368;DHT22;57789;53.868;10.728;2024-03-22T00:06:45;7.70;99.90
70368;DHT22;57789;53.868;10.728;2024-03-22T00:09:11;7.70;99.90
70368;DHT22;57789;53.868;10.728;2024-03-22T00:11:38;7.70;99.90
70368;DHT22;57789;53.868;10.728;2024-03-22T00:14:04;7.70;99.90
70368;DHT22;57789;53.868;10.728;2024-03-22T00:16:29;7.70;99.90
70368;DHT22;57789;53.868;10.728;2024-03-22T00:18:55;7.80;99.90
70368;DHT22;57789;53.868;10.728;2024-03-22T00:21:22;7.80;99.90
70368;DHT22;57789;53.868;10.728;2024-03-22T00:23:48;7.80;99.90
70368;DHT22;57789;53.868;10.728;2024-03-22T00:26:13;7.80;99.90
70368;DHT22;57789;53.868;10.728;2024-03-22T00:28:39;7.80;99.90
70368;DHT22;57789;53.868;10.728;2024-03-22T00:31:05;7.80;99.90
70368;DHT22;57789;53.868;10.728;2024-03-22T00:33:30;7.80;99.90
70368;DHT22;57789;53.868;10.728;2024-03-22T00:35:57;7.80;99.90
70368;DHT22;57789;53.868;10.728;2024-03-22T00:38:23;7.80;99.90
70368;DHT22;57789;53.868;10.728;2024-03-22T00:40:48;7.90;99.90
70368;DHT22;57789;53.868;10.728;2024-03-22T00:43:14;7.90;99.90
70368;DHT22;57789;53.868;10.728;2024-03-22T00:45:40;7.90;99.90
70368;DHT22;57789;53.868;10.728;2024-03-22T00:48:05;7.90;99.90
70368;DHT22;57789;53.868;10.728;2024-03-22T00:50:31;7.90;99.90
70368;DHT22;57789;53.868;10.728;2024-03-22T00:52:57;7.90;99.90
70368;DHT22;57789;53.868;10.728;2024-03-22T00:55:23;8.00;99.90
70368;DHT22;57789;53.868;10.728;2024-03-22T00:57:49;8.00;99.90
70368;DHT22;57789;53.868;10.728;2024-03-22T01:00:15;8.00;99.90
70368;DHT22;57789;53.868;10.728;2024-03-22T01:02:42;8.10;99.90
70368;DHT22;57789;53.868;10.728;2024-03-22T01:05:08;8.00;99.90
70368;DHT22;57789;53.868;10.728;2024-03-22T01:07:33;8.10;99.90
70368;DHT22;57789;53.868;10.728;2024-03-22T01:09:59;8.10;99.90
70368;DHT22;57789;53.868;10.728;2024-03-22T01:12:25;8.10;99.90
70368;DHT22;57789;53.868;10.728;2024-03-22T01:14:51;8.10;99.90
70368;DHT22;57789;53.868;10.728;2024-03-22T01:17:17;8.10;99.90
70368;DHT22;57789;53.868;10.728;2024-03-22T01:19:42;8.20;99.90
70368;DHT22;57789;53.868;10.728;2024-03-22T01:22:08;8.20;99.90
70368;DHT22;57789;53.868;10.728;2024-03-22T01:24:34;8.20;99.90
70368;DHT22;57789;53.868;10.728;2024-03-22T01:26:59;8.20;99.90
70368;DHT22;57789;53.868;10.728;2024-03-22T01:29:25;8.20;99.90
70368;DHT22;57789;53.868;10.728;2024-03-22T01:31:51;8.10;99.90
70368;DHT22;57789;53.868;10.728;2024-03-22T01:34:16;8.10;99.90
70368;DHT22;57789;53.868;10.728;2024-03-22T01:36:42;8.10;99.90
70368;DHT22;57789;53.868;10.728;2024-03-22T01:39:08;8.20;99.90
70368;DHT22;57789;53.868;10.728;2024-03-22T01:41:33;8.20;99.90
70368;DHT22;57789;53.868;10.728;2024-03-22T01:43:59;8.20;99.90
70368;DHT22;57789;53.868;10.728;2024-03-22T01:46:25;8.20;99.90
70368;DHT22;57789;53.868;10.728;2024-03-22T01:48:51;8.30;99.90
70368;DHT22;57789;53.868;10.728;2024-03-22T01:51:17;8.30;99.90
70368;DHT22;57789;53.868;10.728;2024-03-22T01:53:43;8.30;99.90
70368;DHT22;57789;53.868;10.728;2024-03-22T01:56:09;8.30;99.90
70368;DHT22;57789;53.868;10.728;2024-03-22T01:58:35;8.40;99.90
70368;DHT22;57789;53.868;10.728;2024-03-22T02:01:01;8.40;99.90
70368;DHT22;57789;53.868;10.728;2024-03-22T02:03:27;8.30;99.90
70368;DHT22;57789;53.868;10.728;2024-03-22T02:05:53;8.30;99.90
70368;DHT22;57789;53.868;10.728;2024-03-22T02:08:19;8.30;99.90
70368;DHT22;57789;53.868;10.728;2024-03-22T02:10:45;8.40;99.90
70368;DHT22;57789;53.868;10.728;2024-03-22T02:13:10;8.40;99.90
70368;DHT22;57789;53.868;10.728;2024-03-22T02:15:36;8.40;99.90
70368;DHT22;57789;53.868;10.728;2024-03-22T02:18:02;8.40;99.90
70368;DHT22;57789;53.868;10.728;2024-03-22T02:20:27;8.40;99.90
70368;DHT22;57789;53.868;10.728;2024-03-22T02:22:53;8.50;99.90
70368;DHT22;57789;53.868;10.728;2024-03-22T02:25:19;8.50;99.90
70368;DHT22;57789;53.868;10.728;2024-03-22T02:27:44;8.50;99.90
70368;DHT22;57789;53.868;10.728;2024-03-22T02:30:10;8.50;99.90
70368;DHT22;57789;53.868;10.728;2024-03-22T02:32:36;8.50;99.90
70368;DHT22;57789;53.868;10.728;2024-03-22T02:35:03;8.50;99.90
70368;DHT22;57789;53.868;10.728;2024-03-22T02:37:28;8.50;99.90
70368;DHT22;57789;53.868;10.728;2024-03-22T02:39:54;8.50;99.90
70368;DHT22;57789;53.868;10.728;2024-03-22T02:42:20;8.60;99.90
70368;DHT22;57789;53.868;10.728;2024-03-22T02:44:45;8.60;99.90
70368;DHT22;57789;53.868;10.728;2024-03-22T02:47:11;8.60;99.90
70368;DHT22;57789;53.868;10.728;2024-03-22T02:49:39;8.60;99.90
70368;DHT22;57789;53.868;10.728;2024-03-22T02:52:05;8.60;99.90
70368;DHT22;57789;53.868;10.728;2024-03-22T02:54:30;8.60;99.90
70368;DHT22;57789;53.868;10.728;2024-03-22T02:56:56;8.60;99.90
70368;DHT22;57789;53.868;10.728;2024-03-22T02:59:25;8.60;99.90
70368;DHT22;57789;53.868;10.728;2024-03-22T03:01:50;8.60;99.90
70368;DHT22;57789;53.868;10.728;2024-03-22T03:04:16;8.60;99.90
70368;DHT22;57789;53.868;10.728;2024-03-22T03:06:41;8.60;99.90
70368;DHT22;57789;53.868;10.728;2024-03-22T03:09:07;8.60;99.90
70368;DHT22;57789;53.868;10.728;2024-03-22T03:11:33;8.60;99.90
70368;DHT22;57789;53.868;10.728;2024-03-22T03:13:59;8.60;99.90
70368;DHT22;57789;53.868;10.728;2024-03-22T03:16:25;8.60;99.90
70368;DHT22;57789;53.868;10.728;2024-03-22T03:18:50;8.70;99.90
70368;DHT22;57789;53.868;10.728;2024-03-22T03:21:16;8.70;99.90
70368;DHT22;57789;53.868;10.728;2024-03-22T03:23:41;8.70;99.90
70368;DHT22;57789;53.868;10.728;2024-03-22T03:26:07;8.70;99.90
70368;DHT22;57789;53.868;10.728;2024-03-22T03:28:33;8.70;99.90
70368;DHT22;57789;53.868;10.728;2024-03-22T03:30:58;8.70;99.90
70368;DHT22;57789;53.868;10.728;2024-03-22T03:33:25;8.70;99.90
70368;DHT22;57789;53.868;10.728;2024-03-22T03:35:50;8.70;99.90
70368;DHT22;57789;53.868;10.728;2024-03-22T03:38:16;8.60;99.90
70368;DHT22;57789;53.868;10.728;2024-03-22T03:40:41;8.70;99.90
70368;DHT22;57789;53.868;10.728;2024-03-22T03:43:07;8.60;99.90
70368;DHT22;57789;53.868;10.728;2024-03-22T03:45:36;8.70;99.90
70368;DHT22;57789;53.868;10.728;2024-03-22T03:48:02;8.70;99.90
70368;DHT22;57789;53.868;10.728;2024-03-22T03:50:27;8.70;99.90
70368;DHT22;57789;53.868;10.728;2024-03-22T03:52:53;8.70;99.90
70368;DHT22;57789;53.868;10.728;2024-03-22T03:55:19;8.70;99.90
70368;DHT22;57789;53.868;10.728;2024-03-22T03:57:44;8.70;99.90
70368;DHT22;57789;53.868;10.728;2024-03-22T04:00:10;8.70;99.90
70368;DHT22;57789;53.868;10.728;2024-03-22T04:02:36;8.80;99.90
70368;DHT22;57789;53.868;10.728;2024-03-22T04:05:01;8.80;99.90
70368;DHT22;57789;53.868;10.728;2024-03-22T04:07:27;8.80;99.90
70368;DHT22;57789;53.868;10.728;2024-03-22T04:09:54;8.80;99.90
70368;DHT22;57789;53.868;10.728;2024-03-22T04:12:20;8.80;99.90
70368;DHT22;57789;53.868;10.728;2024-03-22T04:14:45;8.80;99.90
70368;DHT22;57789;53.868;10.728;2024-03-22T04:17:11;8.80;99.90
70368;DHT22;57789;53.868;10.728;2024-03-22T04:19:37;8.80;99.90
70368;DHT22;57789;53.868;10.728;2024-03-22T04:22:03;8.90;99.90
70368;DHT22;57789;53.868;10.728;2024-03-22T04:24:29;8.90;99.90
70368;DHT22;57789;53.868;10.728;2024-03-22T04:26:55;8.90;99.90
70368;DHT22;57789;53.868;10.728;2024-03-22T04:29:20;8.90;99.90
70368;DHT22;57789;53.868;10.728;2024-03-22T04:31:46;8.90;99.90
70368;DHT22;57789;53.868;10.728;2024-03-22T04:34:11;9.00;99.90
70368;DHT22;57789;53.868;10.728;2024-03-22T04:36:37;9.00;99.90
70368;DHT22;57789;53.868;10.728;2024-03-22T04:39:03;9.00;99.90
70368;DHT22;57789;53.868;10.728;2024-03-22T04:41:29;9.00;99.90
70368;DHT22;57789;53.868;10.728;2024-03-22T04:43:54;9.00;99.90
70368;DHT22;57789;53.868;10.728;2024-03-22T04:46:20;9.00;99.90
70368;DHT22;57789;53.868;10.728;2024-03-22T04:48:46;8.90;99.90
70368;DHT22;57789;53.868;10.728;2024-03-22T04:51:11;9.00;99.90
70368;DHT22;57789;53.868;10.728;2024-03-22T04:53:37;9.00;99.90
70368;DHT22;57789;53.868;10.728;2024-03-22T04:56:03;9.00;99.90
70368;DHT22;57789;53.868;10.728;2024-03-22T04:58:29;8.90;99.90
70368;DHT22;57789;53.868;10.728;2024-03-22T05:00:58;9.00;99.90
70368;DHT22;57789;53.868;10.728;2024-03-22T05:03:23;9.00;99.90
70368;DHT22;57789;53.868;10.728;2024-03-22T05:05:50;9.00;99.90
70368;DHT22;57789;53.868;10.728;2024-03-22T05:08:19;9.00;99.90
70368;DHT22;57789;53.868;10.728;2024-03-22T05:10:44;9.00;99.90
70368;DHT22;57789;53.868;10.728;2024-03-22T05:13:10;9.00;99.90
70368;DHT22;57789;53.868;10.728;2024-03-22T05:15:35;9.10;99.90
70368;DHT22;57789;53.868;10.728;2024-03-22T05:18:01;9.10;99.90
70368;DHT22;57789;53.868;10.728;2024-03-22T05:20:27;9.10;99.90
70368;DHT22;57789;53.868;10.728;2024-03-22T05:22:52;9.10;99.90
70368;DHT22;57789;53.868;10.728;2024-03-22T05:25:18;9.20;99.90
70368;DHT22;57789;53.868;10.728;2024-03-22T05:27:44;9.20;99.90
70368;DHT22;57789;53.868;10.728;2024-03-22T05:30:11;9.20;99.90
70368;DHT22;57789;53.868;10.728;2024-03-22T05:32:37;9.20;99.90
70368;DHT22;57789;53.868;10.728;2024-03-22T05:35:04;9.30;99.90
70368;DHT22;57789;53.868;10.728;2024-03-22T05:37:29;9.30;99.90
70368;DHT22;57789;53.868;10.728;2024-03-22T05:39:55;9.30;99.90
70368;DHT22;57789;53.868;10.728;2024-03-22T05:42:21;9.30;99.90
70368;DHT22;57789;53.868;10.728;2024-03-22T05:44:47;9.30;99.90
70368;DHT22;57789;53.868;10.728;2024-03-22T05:47:13;9.40;99.90
70368;DHT22;57789;53.868;10.728;2024-03-22T05:49:39;9.40;99.90
70368;DHT22;57789;53.868;10.728;2024-03-22T05:52:05;9.40;99.90
70368;DHT22;57789;53.868;10.728;2024-03-22T05:54:31;9.40;99.90
70368;DHT22;57789;53.868;10.728;2024-03-22T05:56:56;9.40;99.90
70368;DHT22;57789;53.868;10.728;2024-03-22T05:59:22;9.40;99.90
70368;DHT22;57789;53.868;10.728;2024-03-22T06:01:48;9.40;99.90
70368;DHT22;57789;53.868;10.728;2024-03-22T06:04:14;9.50;99.90
70368;DHT22;57789;53.868;10.728;2024-03-22T06:06:39;9.50;99.90
70368;DHT22;57789;53.868;10.728;2024-03-22T06:09:05;9.50;99.90
70368;DHT22;57789;53.868;10.728;2024-03-22T06:11:36;9.50;99.90
70368;DHT22;57789;53.868;10.728;2024-03-22T06:14:02;9.50;99.90
70368;DHT22;57789;53.868;10.728;2024-03-22T06:16:27;9.50;99.90
70368;DHT22;57789;53.868;10.728;2024-03-22T06:18:53;9.50;99.90
70368;DHT22;57789;53.868;10.728;2024-03-22T06:21:19;9.60;99.90
70368;DHT22;57789;53.868;10.728;2024-03-22T06:23:50;9.60;99.90
70368;DHT22;57789;53.868;10.728;2024-03-22T06:26:16;9.60;99.90
70368;DHT22;57789;53.868;10.728;2024-03-22T06:28:42;9.60;99.90
70368;DHT22;57789;53.868;10.728;2024-03-22T06:31:08;9.60;99.90
70368;DHT22;57789;53.868;10.728;2024-03-22T06:33:35;9.70;99.90
70368;DHT22;57789;53.868;10.728;2024-03-22T06:36:02;9.70;99.90
70368;DHT22;57789;53.868;10.728;2024-03-22T06:38:28;9.70;99.90
70368;DHT22;57789;53.868;10.728;2024-03-22T06:40:56;9.70;99.90
70368;DHT22;57789;53.868;10.728;2024-03-22T06:43:25;9.80;99.90
70368;DHT22;57789;53.868;10.728;2024-03-22T06:45:51;9.90;99.90
70368;DHT22;57789;53.868;10.728;2024-03-22T06:48:16;9.90;99.90
70368;DHT22;57789;53.868;10.728;2024-03-22T06:50:42;9.90;99.90
70368;DHT22;57789;53.868;10.728;2024-03-22T06:53:08;9.90;99.90
70368;DHT22;57789;53.868;10.728;2024-03-22T06:55:37;9.90;99.90
70368;DHT22;57789;53.868;10.728;2024-03-22T06:58:03;9.90;99.90
70368;DHT22;57789;53.868;10.728;2024-03-22T07:00:29;10.00;99.90
70368;DHT22;57789;53.868;10.728;2024-03-22T07:02:55;10.00;99.90
70368;DHT22;57789;53.868;10.728;2024-03-22T07:05:21;10.00;99.90
70368;DHT22;57789;53.868;10.728;2024-03-22T07:07:47;10.10;99.90
70368;DHT22;57789;53.868;10.728;2024-03-22T07:10:15;10.10;99.90
70368;DHT22;57789;53.868;10.728;2024-03-22T07:12:41;10.20;99.90
70368;DHT22;57789;53.868;10.728;2024-03-22T07:15:07;10.20;99.90
70368;DHT22;57789;53.868;10.728;2024-03-22T07:17:33;10.20;99.90
70368;DHT22;57789;53.868;10.728;2024-03-22T07:20:02;10.20;99.90
70368;DHT22;57789;53.868;10.728;2024-03-22T07:22:30;10.30;99.90
70368;DHT22;57789;53.868;10.728;2024-03-22T07:24:55;10.30;99.90
70368;DHT22;57789;53.868;10.728;2024-03-22T07:27:21;10.30;99.90
70368;DHT22;57789;53.868;10.728;2024-03-22T07:29:47;10.40;99.90
70368;DHT22;57789;53.868;10.728;2024-03-22T07:32:13;10.40;99.90
70368;DHT22;57789;53.868;10.728;2024-03-22T07:34:39;10.50;99.90
70368;DHT22;57789;53.868;10.728;2024-03-22T07:37:05;10.60;99.90
70368;DHT22;57789;53.868;10.728;2024-03-22T07:39:30;10.60;99.90
70368;DHT22;57789;53.868;10.728;2024-03-22T07:41:56;10.60;99.90
70368;DHT22;57789;53.868;10.728;2024-03-22T07:44:22;10.70;99.90
70368;DHT22;57789;53.868;10.728;2024-03-22T07:46:50;10.80;99.90
70368;DHT22;57789;53.868;10.728;2024-03-22T07:49:17;10.80;99.90
70368;DHT22;57789;53.868;10.728;2024-03-22T07:51:44;10.80;99.90
70368;DHT22;57789;53.868;10.728;2024-03-22T07:54:10;10.90;99.90
70368;DHT22;57789;53.868;10.728;2024-03-22T07:56:36;11.10;99.90
70368;DHT22;57789;53.868;10.728;2024-03-22T07:59:02;11.00;99.90
70368;DHT22;57789;53.868;10.728;2024-03-22T08:01:27;11.00;99.90
70368;DHT22;57789;53.868;10.728;2024-03-22T08:03:53;11.10;99.90
70368;DHT22;57789;53.868;10.728;2024-03-22T08:06:19;11.10;99.90
70368;DHT22;57789;53.868;10.728;2024-03-22T08:08:45;11.20;99.90
70368;DHT22;57789;53.868;10.728;2024-03-22T08:11:11;11.20;99.90
70368;DHT22;57789;53.868;10.728;2024-03-22T08:13:36;11.30;99.90
70368;DHT22;57789;53.868;10.728;2024-03-22T08:16:02;11.40;99.90
70368;DHT22;57789;53.868;10.728;2024-03-22T08:18:28;11.40;99.90
70368;DHT22;57789;53.868;10.728;2024-03-22T08:20:54;11.50;99.90
70368;DHT22;57789;53.868;10.728;2024-03-22T08:23:20;11.40;99.90
70368;DHT22;57789;53.868;10.728;2024-03-22T08:25:48;11.40;99.90
70368;DHT22;57789;53.868;10.728;2024-03-22T08:28:14;11.40;99.90
70368;DHT22;57789;53.868;10.728;2024-03-22T08:30:41;11.40;99.90
70368;DHT22;57789;53.868;10.728;2024-03-22T08:33:08;11.40;99.90
70368;DHT22;57789;53.868;10.728;2024-03-22T08:35:34;11.40;99.90
70368;DHT22;57789;53.868;10.728;2024-03-22T08:38:00;11.30;99.90
70368;DHT22;57789;53.868;10.728;2024-03-22T08:40:26;11.40;99.90
70368;DHT22;57789;53.868;10.728;2024-03-22T08:42:52;11.30;99.90
70368;DHT22;57789;53.868;10.728;2024-03-22T08:45:18;11.30;99.90
70368;DHT22;57789;53.868;10.728;2024-03-22T08:47:45;11.30;99.90
70368;DHT22;57789;53.868;10.728;2024-03-22T08:50:13;11.30;99.90
70368;DHT22;57789;53.868;10.728;2024-03-22T08:52:40;11.30;99.90
70368;DHT22;57789;53.868;10.728;2024-03-22T08:55:06;11.20;99.90
70368;DHT22;57789;53.868;10.728;2024-03-22T08:57:33;11.20;99.90
70368;DHT22;57789;53.868;10.728;2024-03-22T08:59:59;11.30;99.90
70368;DHT22;57789;53.868;10.728;2024-03-22T09:02:25;11.40;99.90
70368;DHT22;57789;53.868;10.728;2024-03-22T09:04:51;11.40;99.90
70368;DHT22;57789;53.868;10.728;2024-03-22T09:07:19;11.40;99.90
70368;DHT22;57789;53.868;10.728;2024-03-22T09:09:45;11.40;99.90
70368;DHT22;57789;53.868;10.728;2024-03-22T09:12:11;11.30;99.90
70368;DHT22;57789;53.868;10.728;2024-03-22T09:14:36;11.30;99.90
70368;DHT22;57789;53.868;10.728;2024-03-22T09:17:02;11.30;99.90
70368;DHT22;57789;53.868;10.728;2024-03-22T09:19:28;11.30;99.90
70368;DHT22;57789;53.868;10.728;2024-03-22T09:21:54;11.30;99.90
70368;DHT22;57789;53.868;10.728;2024-03-22T09:24:20;11.20;99.90
70368;DHT22;57789;53.868;10.728;2024-03-22T09:26:46;11.30;99.90
70368;DHT22;57789;53.868;10.728;2024-03-22T09:29:13;11.40;99.90
70368;DHT22;57789;53.868;10.728;2024-03-22T09:31:39;11.40;99.90
70368;DHT22;57789;53.868;10.728;2024-03-22T09:34:05;11.40;99.90
70368;DHT22;57789;53.868;10.728;2024-03-22T09:36:31;11.20;99.90
70368;DHT22;57789;53.868;10.728;2024-03-22T09:39:01;11.20;99.90
70368;DHT22;57789;53.868;10.728;2024-03-22T09:41:27;11.20;99.90
70368;DHT22;57789;53.868;10.728;2024-03-22T09:43:56;11.20;99.90
70368;DHT22;57789;53.868;10.728;2024-03-22T09:46:23;11.20;99.90
70368;DHT22;57789;53.868;10.728;2024-03-22T09:48:49;11.10;99.90
70368;DHT22;57789;53.868;10.728;2024-03-22T09:51:16;11.10;99.90
70368;DHT22;57789;53.868;10.728;2024-03-22T09:53:48;11.00;99.90
70368;DHT22;57789;53.868;10.728;2024-03-22T09:56:15;10.90;99.90
70368;DHT22;57789;53.868;10.728;2024-03-22T09:58:44;10.80;99.90
70368;DHT22;57789;53.868;10.728;2024-03-22T10:01:11;10.70;99.90
70368;DHT22;57789;53.868;10.728;2024-03-22T10:03:37;10.70;99.90
70368;DHT22;57789;53.868;10.728;2024-03-22T10:06:03;10.70;99.90
70368;DHT22;57789;53.868;10.728;2024-03-22T10:08:30;10.70;99.90
70368;DHT22;57789;53.868;10.728;2024-03-22T10:10:56;10.80;99.90
70368;DHT22;57789;53.868;10.728;2024-03-22T10:13:22;10.80;99.90
70368;DHT22;57789;53.868;10.728;2024-03-22T10:15:47;10.80;99.90
70368;DHT22;57789;53.868;10.728;2024-03-22T10:18:14;10.90;99.90
70368;DHT22;57789;53.868;10.728;2024-03-22T10:20:42;11.00;99.90
70368;DHT22;57789;53.868;10.728;2024-03-22T10:23:08;11.10;99.90
70368;DHT22;57789;53.868;10.728;2024-03-22T10:25:34;11.10;99.90
70368;DHT22;57789;53.868;10.728;2024-03-22T10:28:01;11.10;99.90
70368;DHT22;57789;53.868;10.728;2024-03-22T10:30:28;11.10;99.90
70368;DHT22;57789;53.868;10.728;2024-03-22T10:32:56;11.10;99.90
70368;DHT22;57789;53.868;10.728;2024-03-22T10:35:22;11.10;99.90
70368;DHT22;57789;53.868;10.728;2024-03-22T10:37:49;11.10;99.90
70368;DHT22;57789;53.868;10.728;2024-03-22T10:40:15;11.20;99.90
70368;DHT22;57789;53.868;10.728;2024-03-22T10:42:42;11.00;99.90
70368;DHT22;57789;53.868;10.728;2024-03-22T10:45:10;10.90;99.90
70368;DHT22;57789;53.868;10.728;2024-03-22T10:47:37;10.80;99.90
70368;DHT22;57789;53.868;10.728;2024-03-22T10:50:09;10.70;99.90
70368;DHT22;57789;53.868;10.728;2024-03-22T10:52:59;10.70;99.90
70368;DHT22;57789;53.868;10.728;2024-03-22T10:55:35;10.70;99.90
70368;DHT22;57789;53.868;10.728;2024-03-22T10:58:02;10.60;99.90
70368;DHT22;57789;53.868;10.728;2024-03-22T11:00:33;10.60;99.90
70368;DHT22;57789;53.868;10.728;2024-03-22T11:03:01;10.60;99.90
70368;DHT22;57789;53.868;10.728;2024-03-22T11:05:27;10.60;99.90
70368;DHT22;57789;53.868;10.728;2024-03-22T11:10:29;10.50;99.90
70368;DHT22;57789;53.868;10.728;2024-03-22T11:13:04;10.50;99.90
70368;DHT22;57789;53.868;10.728;2024-03-22T11:15:30;10.40;99.90
70368;DHT22;57789;53.868;10.728;2024-03-22T11:17:57;10.40;99.90
70368;DHT22;57789;53.868;10.728;2024-03-22T11:20:27;10.40;99.90
70368;DHT22;57789;53.868;10.728;2024-03-22T11:22:56;10.40;99.90
70368;DHT22;57789;53.868;10.728;2024-03-22T11:25:22;10.40;99.90
70368;DHT22;57789;53.868;10.728;2024-03-22T11:27:47;10.40;99.90
70368;DHT22;57789;53.868;10.728;2024-03-22T11:30:13;10.50;99.90
70368;DHT22;57789;53.868;10.728;2024-03-22T11:32:43;10.40;99.90
70368;DHT22;57789;53.868;10.728;2024-03-22T11:35:13;10.50;99.90
70368;DHT22;57789;53.868;10.728;2024-03-22T11:37:39;10.50;99.90
70368;DHT22;57789;53.868;10.728;2024-03-22T11:40:09;10.50;99.90
70368;DHT22;57789;53.868;10.728;2024-03-22T11:42:39;10.50;99.90
70368;DHT22;57789;53.868;10.728;2024-03-22T11:45:08;10.40;99.90
70368;DHT22;57789;53.868;10.728;2024-03-22T11:47:35;10.40;99.90
70368;DHT22;57789;53.868;10.728;2024-03-22T11:50:01;10.40;99.90
70368;DHT22;57789;53.868;10.728;2024-03-22T11:52:36;10.30;99.90
70368;DHT22;57789;53.868;10.728;2024-03-22T11:55:02;10.30;99.90
70368;DHT22;57789;53.868;10.728;2024-03-22T11:57:30;10.30;99.90
70368;DHT22;57789;53.868;10.728;2024-03-22T11:59:59;10.20;99.90
70368;DHT22;57789;53.868;10.728;2024-03-22T12:02:25;10.20;99.90
70368;DHT22;57789;53.868;10.728;2024-03-22T12:04:52;10.20;99.90
70368;DHT22;57789;53.868;10.728;2024-03-22T12:07:18;10.20;99.90
70368;DHT22;57789;53.868;10.728;2024-03-22T12:09:44;10.30;99.90
70368;DHT22;57789;53.868;10.728;2024-03-22T12:12:12;10.30;99.90
70368;DHT22;57789;53.868;10.728;2024-03-22T12:14:38;10.20;99.90
70368;DHT22;57789;53.868;10.728;2024-03-22T12:17:04;10.30;99.90
70368;DHT22;57789;53.868;10.728;2024-03-22T12:19:30;10.30;99.90
70368;DHT22;57789;53.868;10.728;2024-03-22T12:21:56;10.20;99.90
70368;DHT22;57789;53.868;10.728;2024-03-22T12:24:23;10.20;99.90
70368;DHT22;57789;53.868;10.728;2024-03-22T12:26:50;10.20;99.90
70368;DHT22;57789;53.868;10.728;2024-03-22T12:29:17;10.20;99.90
70368;DHT22;57789;53.868;10.728;2024-03-22T12:31:43;10.20;99.90
70368;DHT22;57789;53.868;10.728;2024-03-22T12:34:09;10.20;99.90
70368;DHT22;57789;53.868;10.728;2024-03-22T12:36:35;10.20;99.90
70368;DHT22;57789;53.868;10.728;2024-03-22T12:39:01;10.30;99.90
70368;DHT22;57789;53.868;10.728;2024-03-22T12:41:27;10.20;99.90
70368;DHT22;57789;53.868;10.728;2024-03-22T12:43:55;10.10;99.90
70368;DHT22;57789;53.868;10.728;2024-03-22T12:46:21;10.10;99.90
70368;DHT22;57789;53.868;10.728;2024-03-22T12:48:46;10.00;99.90
70368;DHT22;57789;53.868;10.728;2024-03-22T12:51:12;10.00;99.90
70368;DHT22;57789;53.868;10.728;2024-03-22T12:53:38;9.90;99.90
70368;DHT22;57789;53.868;10.728;2024-03-22T12:56:04;9.90;99.90
70368;DHT22;57789;53.868;10.728;2024-03-22T12:58:30;9.80;99.90
70368;DHT22;57789;53.868;10.728;2024-03-22T13:00:57;9.80;99.90
70368;DHT22;57789;53.868;10.728;2024-03-22T13:03:23;9.70;99.90
70368;DHT22;57789;53.868;10.728;2024-03-22T13:05:48;9.70;99.90
70368;DHT22;57789;53.868;10.728;2024-03-22T13:08:14;9.80;99.90
70368;DHT22;57789;53.868;10.728;2024-03-22T13:10:40;9.90;99.90
70368;DHT22;57789;53.868;10.728;2024-03-22T13:13:09;9.90;99.90
70368;DHT22;57789;53.868;10.728;2024-03-22T13:15:37;10.00;99.90
70368;DHT22;57789;53.868;10.728;2024-03-22T13:18:06;10.10;99.90
70368;DHT22;57789;53.868;10.728;2024-03-22T13:20:32;10.10;99.90
70368;DHT22;57789;53.868;10.728;2024-03-22T13:22:58;10.20;99.90
70368;DHT22;57789;53.868;10.728;2024-03-22T13:25:24;10.20;99.90
70368;DHT22;57789;53.868;10.728;2024-03-22T13:27:49;10.20;99.90
70368;DHT22;57789;53.868;10.728;2024-03-22T13:30:15;10.10;99.90
70368;DHT22;57789;53.868;10.728;2024-03-22T13:32:41;10.20;99.90
70368;DHT22;57789;53.868;10.728;2024-03-22T13:35:07;10.20;99.90
70368;DHT22;57789;53.868;10.728;2024-03-22T13:37:33;10.20;99.90
70368;DHT22;57789;53.868;10.728;2024-03-22T13:39:59;10.20;99.90
70368;DHT22;57789;53.868;10.728;2024-03-22T13:42:26;10.30;99.90
70368;DHT22;57789;53.868;10.728;2024-03-22T13:44:52;10.30;99.90
70368;DHT22;57789;53.868;10.728;2024-03-22T13:47:17;10.30;99.90
70368;DHT22;57789;53.868;10.728;2024-03-22T13:49:44;10.20;99.90
70368;DHT22;57789;53.868;10.728;2024-03-22T13:52:10;10.20;99.90
70368;DHT22;57789;53.868;10.728;2024-03-22T13:54:36;10.10;99.90
70368;DHT22;57789;53.868;10.728;2024-03-22T13:57:03;10.00;99.90
70368;DHT22;57789;53.868;10.728;2024-03-22T13:59:29;10.00;99.90
70368;DHT22;57789;53.868;10.728;2024-03-22T14:01:55;10.10;99.90
70368;DHT22;57789;53.868;10.728;2024-03-22T14:04:22;10.10;99.90
70368;DHT22;57789;53.868;10.728;2024-03-22T14:06:48;10.00;99.90
70368;DHT22;57789;53.868;10.728;2024-03-22T14:09:14;10.10;99.90
70368;DHT22;57789;53.868;10.728;2024-03-22T14:11:41;10.10;99.90
70368;DHT22;57789;53.868;10.728;2024-03-22T14:14:11;10.10;99.90
70368;DHT22;57789;53.868;10.728;2024-03-22T14:16:40;10.00;99.90
70368;DHT22;57789;53.868;10.728;2024-03-22T14:19:07;10.00;99.90
70368;DHT22;57789;53.868;10.728;2024-03-22T14:21:34;10.00;99.90
70368;DHT22;57789;53.868;10.728;2024-03-22T14:24:00;10.00;99.90
70368;DHT22;57789;53.868;10.728;2024-03-22T14:26:25;9.90;99.90
70368;DHT22;57789;53.868;10.728;2024-03-22T14:28:51;9.90;99.90
70368;DHT22;57789;53.868;10.728;2024-03-22T14:31:18;9.80;99.90
70368;DHT22;57789;53.868;10.728;2024-03-22T14:33:45;9.80;99.90
70368;DHT22;57789;53.868;10.728;2024-03-22T14:36:11;9.70;99.90
70368;DHT22;57789;53.868;10.728;2024-03-22T14:38:38;9.70;99.90
70368;DHT22;57789;53.868;10.728;2024-03-22T14:41:04;9.70;99.90
70368;DHT22;57789;53.868;10.728;2024-03-22T14:43:30;9.70;99.90
70368;DHT22;57789;53.868;10.728;2024-03-22T14:46:02;9.80;99.90
70368;DHT22;57789;53.868;10.728;2024-03-22T14:48:28;9.80;99.90
70368;DHT22;57789;53.868;10.728;2024-03-22T14:50:54;9.90;99.90
70368;DHT22;57789;53.868;10.728;2024-03-22T14:53:20;10.00;99.90
70368;DHT22;57789;53.868;10.728;2024-03-22T14:56:01;10.00;99.90
70368;DHT22;57789;53.868;10.728;2024-03-22T14:58:31;9.90;99.90
70368;DHT22;57789;53.868;10.728;2024-03-22T15:00:59;9.90;99.90
70368;DHT22;57789;53.868;10.728;2024-03-22T15:03:25;9.90;99.90
70368;DHT22;57789;53.868;10.728;2024-03-22T15:05:52;10.00;99.90
70368;DHT22;57789;53.868;10.728;2024-03-22T15:08:19;10.00;99.90
70368;DHT22;57789;53.868;10.728;2024-03-22T15:10:45;10.00;99.90
70368;DHT22;57789;53.868;10.728;2024-03-22T15:13:11;10.00;99.90
70368;DHT22;57789;53.868;10.728;2024-03-22T15:15:38;10.00;99.90
70368;DHT22;57789;53.868;10.728;2024-03-22T15:18:04;10.00;99.90
70368;DHT22;57789;53.868;10.728;2024-03-22T15:20:33;10.10;99.90